WXM80 ListenWXM80 Stop

You find our weather info also at:

UK Metoffice

WeatherCloud

Weather Underground

Northeastern Weather Network

AWEKAS

Citizen Weather Observer Program (CWOP)

HAMweather, WeatherForYou, PWS Weather


Weather Underground History page Text

Daily Summary for July 14, 2016 Units:  English    Metric   Both
« Previous Day
Next Day »
Daily Weekly Monthly Yearly Custom
  High: Low: Average:
Temperature: 90.2 °F 73.9 °F 79 °F
Dew Point: 79.6 °F 69.4 °F 75 °F
Humidity: 97 % 67 % 88 %
Wind Speed: 8.8 mph 0.0 mph 1.1 mph
Wind Gust: 16.1 mph - -
Wind:- - South
Pressure: 29.98 in 29.75 in -
Precipitation: 0.59 in    
Historical Graphs
 
 
Tabular Data for July 14, 2016
Time Temperature Dew Point Pressure Wind Wind Speed Wind Gust Humidity Rainfall Rate (Hourly)
00:02 74.0 °F 69.5 °F 29.97 in SSE 0.5 mph 2.3 mph 86 % 0.00 in
00:07 74.0 °F 69.5 °F 29.97 in Calm   1.2 mph 86 % 0.00 in
00:12 74.0 °F 69.5 °F 29.97 in SSE 0.8 mph 2.0 mph 86 % 0.00 in
00:17 73.9 °F 69.4 °F 29.97 in SSE 0.4 mph 1.2 mph 86 % 0.00 in
00:22 74.0 °F 69.9 °F 29.97 in SSE 0.1 mph 1.0 mph 87 % 0.00 in
00:27 74.0 °F 69.9 °F 29.97 in SE 0.7 mph 3.5 mph 87 % 0.00 in
00:32 74.1 °F 70.0 °F 29.97 in SE 0.2 mph 8.1 mph 87 % 0.00 in
00:38 74.2 °F 70.1 °F 29.97 in SE 0.2 mph 2.3 mph 87 % 0.00 in
00:43 74.2 °F 70.1 °F 29.97 in SSE 0.9 mph 2.3 mph 87 % 0.00 in
00:48 74.2 °F 70.1 °F 29.97 in SE 0.2 mph 1.2 mph 87 % 0.00 in
00:53 74.2 °F 70.1 °F 29.96 in SE 1.5 mph 4.0 mph 87 % 0.00 in
00:58 74.3 °F 70.2 °F 29.97 in SE 1.3 mph 3.5 mph 87 % 0.00 in
01:03 74.4 °F 70.3 °F 29.97 in SSE 0.4 mph 2.3 mph 87 % 0.00 in
01:08 74.4 °F 70.3 °F 29.97 in SE 0.3 mph 2.3 mph 87 % 0.00 in
01:13 74.5 °F 70.4 °F 29.97 in SSE 1.2 mph 3.5 mph 87 % 0.00 in
01:18 74.6 °F 70.5 °F 29.97 in South 0.1 mph 3.5 mph 87 % 0.00 in
01:23 74.6 °F 70.8 °F 29.97 in SE 2.1 mph 7.0 mph 88 % 0.00 in
01:29 74.7 °F 70.9 °F 29.97 in SSE 3.3 mph 5.8 mph 88 % 0.00 in
01:34 74.8 °F 71.0 °F 29.98 in SSE 1.2 mph 6.9 mph 88 % 0.00 in
01:39 74.8 °F 71.0 °F 29.97 in South 2.2 mph 3.5 mph 88 % 0.00 in
01:44 74.9 °F 71.1 °F 29.97 in Calm   1.2 mph 88 % 0.00 in
01:49 74.9 °F 71.4 °F 29.97 in South 0.3 mph 1.2 mph 89 % 0.00 in
01:54 75.0 °F 71.5 °F 29.97 in SE 0.8 mph 4.0 mph 89 % 0.00 in
01:59 75.1 °F 71.6 °F 29.97 in SE 0.4 mph 2.3 mph 89 % 0.00 in
02:04 75.1 °F 71.6 °F 29.96 in Calm   3.5 mph 89 % 0.00 in
02:09 75.2 °F 71.7 °F 29.97 in Calm   1.2 mph 89 % 0.00 in
02:14 75.2 °F 71.7 °F 29.97 in SSE 0.3 mph 2.3 mph 89 % 0.00 in
02:20 75.3 °F 71.8 °F 29.96 in SE 0.2 mph 3.5 mph 89 % 0.00 in
02:25 75.3 °F 71.8 °F 29.96 in SW 0.1 mph 3.5 mph 89 % 0.00 in
02:30 75.4 °F 72.3 °F 29.96 in SW 0.4 mph 2.3 mph 90 % 0.00 in
02:35 75.4 °F 72.3 °F 29.96 in SW 0.5 mph 2.3 mph 90 % 0.00 in
02:40 75.5 °F 72.4 °F 29.96 in SSE 1.0 mph 3.0 mph 90 % 0.00 in
02:45 75.4 °F 72.6 °F 29.95 in SE 4.7 mph 8.1 mph 91 % 0.01 in
02:50 75.3 °F 72.8 °F 29.95 in SE 1.4 mph 3.5 mph 92 % 0.02 in
02:55 75.1 °F 72.6 °F 29.95 in SSE 0.7 mph 3.5 mph 92 % 0.02 in
03:00 74.9 °F 72.7 °F 29.95 in SE 0.8 mph 2.3 mph 93 % 0.02 in
03:05 74.8 °F 72.6 °F 29.95 in SE 0.5 mph 3.5 mph 93 % 0.02 in
03:11 74.8 °F 72.6 °F 29.95 in Calm   2.0 mph 93 % 0.01 in
03:16 74.8 °F 72.7 °F 29.94 in Calm   2.0 mph 93 % 0.03 in
03:21 74.8 °F 73.0 °F 29.94 in SW 1.0 mph 4.0 mph 94 % 0.01 in
03:25 74.8 °F 73.0 °F 29.94 in Calm   3.0 mph 94 % 0.00 in
03:30 74.7 °F 72.9 °F 29.94 in SE 1.5 mph 3.5 mph 94 % 0.25 in
03:36 74.7 °F 73.2 °F 29.94 in Calm   2.0 mph 95 % 0.03 in
03:40 74.7 °F 73.2 °F 29.94 in SSE 1.0 mph 5.0 mph 95 % 0.01 in
03:45 74.7 °F 73.2 °F 29.94 in Calm     95 % 0.36 in
03:51 74.7 °F 73.2 °F 29.94 in Calm   2.0 mph 95 % 0.00 in
03:56 74.8 °F 73.2 °F 29.94 in Calm   6.0 mph 95 % 0.00 in
04:01 74.7 °F 73.2 °F 29.93 in SW 0.4 mph 2.3 mph 95 % 0.35 in
04:06 74.8 °F 73.3 °F 29.93 in SW 0.1 mph 2.3 mph 95 % 0.35 in
04:11 74.8 °F 73.3 °F 29.93 in SE 0.1 mph 2.3 mph 95 % 0.35 in
04:16 74.8 °F 73.3 °F 29.93 in Calm     95 % 0.24 in
04:21 74.8 °F 73.6 °F 29.93 in Calm     96 % 0.16 in
04:26 74.9 °F 73.7 °F 29.93 in SSW 1.1 mph 3.5 mph 96 % 0.13 in
04:31 74.9 °F 73.7 °F 29.93 in WSW 0.4 mph 2.3 mph 96 % 0.13 in
04:36 74.9 °F 73.7 °F 29.93 in SW 0.2 mph 2.3 mph 96 % 0.06 in
04:41 74.9 °F 73.7 °F 29.93 in SW 0.1 mph 1.2 mph 96 % 0.01 in
04:47 74.9 °F 73.7 °F 29.94 in Calm   1.2 mph 96 % 0.01 in
04:52 74.8 °F 73.6 °F 29.93 in WSW 0.4 mph 2.3 mph 96 % 0.02 in
04:57 74.8 °F 73.6 °F 29.93 in WSW 0.1 mph 1.2 mph 96 % 0.04 in
05:02 74.9 °F 73.7 °F 29.93 in Calm     96 % 0.04 in
05:07 74.9 °F 73.7 °F 29.93 in Calm     96 % 0.04 in
05:12 74.9 °F 73.7 °F 29.93 in Calm     96 % 0.03 in
05:17 74.9 °F 73.7 °F 29.93 in Calm     96 % 0.03 in
05:22 74.9 °F 73.7 °F 29.93 in Calm     96 % 0.03 in
05:27 74.9 °F 73.7 °F 29.93 in Calm   1.2 mph 96 % 0.03 in
05:32 74.9 °F 73.7 °F 29.93 in WSW 0.4 mph 1.2 mph 96 % 0.03 in
05:38 75.0 °F 73.8 °F 29.93 in Calm   1.2 mph 96 % 0.03 in
05:43 74.9 °F 73.7 °F 29.93 in South 0.9 mph 3.5 mph 96 % 0.03 in
05:48 74.9 °F 73.7 °F 29.93 in Calm   1.2 mph 96 % 0.04 in
05:53 74.9 °F 73.7 °F 29.92 in SE 1.7 mph 4.6 mph 96 % 0.03 in
05:58 74.8 °F 73.6 °F 29.92 in SE 1.3 mph 8.0 mph 96 % 0.01 in
06:03 74.7 °F 73.5 °F 29.92 in SE 0.8 mph 2.3 mph 96 % 0.01 in
06:08 74.7 °F 73.5 °F 29.91 in SE 0.9 mph 2.3 mph 96 % 0.01 in
06:13 74.6 °F 73.4 °F 29.91 in SSE 0.8 mph 1.2 mph 96 % 0.01 in
06:18 74.5 °F 73.3 °F 29.91 in SE 1.1 mph 3.5 mph 96 % 0.01 in
06:23 74.5 °F 73.3 °F 29.91 in SSE 1.8 mph 2.3 mph 96 % 0.01 in
06:29 74.5 °F 73.3 °F 29.90 in SSE 3.4 mph 5.8 mph 96 % 0.01 in
06:34 74.6 °F 73.4 °F 29.90 in SSE 3.2 mph 8.1 mph 96 % 0.01 in
06:39 74.6 °F 73.4 °F 29.90 in SE 3.1 mph 8.1 mph 96 % 0.01 in
06:44 74.7 °F 73.5 °F 29.90 in SSE 4.3 mph 11.5 mph 96 % 0.01 in
06:49 74.7 °F 73.5 °F 29.90 in SSE 2.4 mph 5.8 mph 96 % 0.00 in
06:54 74.8 °F 73.6 °F 29.91 in SE 0.6 mph 2.0 mph 96 % 0.00 in
06:59 74.9 °F 73.7 °F 29.91 in SW 1.3 mph 3.5 mph 96 % 0.00 in
07:04 75.0 °F 74.1 °F 29.91 in SW 0.3 mph 2.3 mph 97 % 0.00 in
07:09 75.1 °F 74.2 °F 29.91 in SW 0.4 mph 2.3 mph 97 % 0.00 in
07:14 75.2 °F 74.3 °F 29.92 in WSW 1.7 mph 4.6 mph 97 % 0.00 in
07:20 75.2 °F 74.3 °F 29.92 in WSW 1.4 mph 1.4 mph 97 % 0.00 in
07:25 75.2 °F 74.3 °F 29.91 in SW 0.1 mph 2.3 mph 97 % 0.00 in
07:30 75.3 °F 74.1 °F 29.91 in Calm   1.2 mph 96 % 0.00 in
07:35 75.3 °F 74.1 °F 29.91 in SE 0.7 mph 5.0 mph 96 % 0.00 in
07:40 75.3 °F 74.1 °F 29.91 in SSE 0.2 mph 1.2 mph 96 % 0.00 in
07:45 75.3 °F 74.1 °F 29.91 in Calm   1.2 mph 96 % 0.00 in
07:50 75.4 °F 74.2 °F 29.91 in SE 0.1 mph 1.2 mph 96 % 0.00 in
07:55 75.4 °F 74.2 °F 29.91 in SE 0.9 mph 2.3 mph 96 % 0.00 in
08:00 75.5 °F 74.3 °F 29.91 in SE 2.1 mph 5.8 mph 96 % 0.00 in
08:05 75.6 °F 74.4 °F 29.91 in Calm     96 % 0.00 in
08:11 75.7 °F 74.5 °F 29.92 in Calm   2.0 mph 96 % 0.00 in
08:16 75.8 °F 74.9 °F 29.91 in Calm   2.0 mph 97 % 0.00 in
08:21 75.9 °F 75.0 °F 29.91 in Calm   2.0 mph 97 % 0.00 in
08:26 76.0 °F 75.1 °F 29.92 in SSW 1.0 mph 3.0 mph 97 % 0.00 in
08:36 76.0 °F 74.8 °F 29.91 in Calm   3.0 mph 96 % 0.00 in
08:41 76.1 °F 74.9 °F 29.91 in Calm   4.0 mph 96 % 0.00 in
08:46 76.3 °F 75.1 °F 29.91 in WSW 0.3 mph 1.2 mph 96 % 0.00 in
08:51 76.5 °F 75.6 °F 29.91 in SSW 2.0 mph 7.0 mph 97 % 0.00 in
08:56 76.6 °F 75.4 °F 29.91 in Calm   4.0 mph 96 % 0.00 in
09:01 76.8 °F 75.6 °F 29.91 in SE 0.2 mph   96 % 0.00 in
09:06 76.9 °F 75.7 °F 29.91 in South 1.0 mph 3.0 mph 96 % 0.00 in
09:11 76.9 °F 75.4 °F 29.90 in South 1.0 mph 5.0 mph 95 % 0.00 in
09:16 76.9 °F 75.4 °F 29.90 in South 0.3 mph   95 % 0.00 in
09:21 77.0 °F 75.1 °F 29.90 in SSE 1.0 mph 4.0 mph 94 % 0.00 in
09:26 77.1 °F 75.6 °F 29.90 in South 1.0 mph 4.0 mph 95 % 0.00 in
09:31 77.3 °F 75.8 °F 29.90 in SSW 0.1 mph 1.2 mph 95 % 0.00 in
09:36 77.5 °F 76.0 °F 29.90 in Calm   3.0 mph 95 % 0.00 in
09:41 77.7 °F 76.1 °F 29.89 in Calm   1.0 mph 95 % 0.00 in
09:46 77.9 °F 76.3 °F 29.88 in South 2.0 mph 6.0 mph 95 % 0.00 in
09:51 78.0 °F 76.1 °F 29.88 in Calm   2.0 mph 94 % 0.00 in
09:56 78.2 °F 76.3 °F 29.89 in South 1.0 mph 4.0 mph 94 % 0.00 in
10:01 78.6 °F 76.4 °F 29.88 in SE 0.8 mph 5.0 mph 93 % 0.00 in
10:06 79.1 °F 76.9 °F 29.88 in South 2.0 mph 5.0 mph 93 % 0.00 in
10:11 79.5 °F 76.7 °F 29.89 in South 1.0 mph 3.0 mph 91 % 0.00 in
10:16 79.9 °F 77.0 °F 29.88 in SSW 2.4 mph 4.6 mph 91 % 0.00 in
10:21 80.2 °F 77.0 °F 29.89 in SSW 3.0 mph 7.0 mph 90 % 0.00 in
10:26 80.4 °F 77.2 °F 29.88 in SW 1.0 mph 8.0 mph 90 % 0.00 in
10:31 80.5 °F 77.0 °F 29.89 in SSW 3.0 mph 7.0 mph 89 % 0.00 in
10:36 80.7 °F 77.2 °F 29.89 in SSW 2.0 mph 6.0 mph 89 % 0.00 in
10:41 80.8 °F 76.9 °F 29.88 in SSW 1.0 mph 3.0 mph 88 % 0.00 in
10:46 80.9 °F 77.0 °F 29.88 in SSW 1.9 mph 3.0 mph 88 % 0.00 in
10:51 81.1 °F 77.5 °F 29.89 in SSW 2.0 mph 5.0 mph 89 % 0.00 in
10:56 81.1 °F 76.6 °F 29.88 in South 1.0 mph 7.0 mph 86 % 0.00 in
11:01 81.3 °F 77.1 °F 29.89 in SW 4.0 mph 7.0 mph 87 % 0.00 in
11:06 81.4 °F 77.2 °F 29.88 in SSW 1.0 mph 8.0 mph 87 % 0.00 in
11:11 81.7 °F 77.1 °F 29.88 in SSW 2.0 mph 6.0 mph 86 % 0.00 in
11:16 82.2 °F 77.6 °F 29.88 in SSE 1.0 mph 3.0 mph 86 % 0.00 in
11:21 82.8 °F 77.5 °F 29.88 in SSE 1.0 mph 5.0 mph 84 % 0.00 in
11:26 82.9 °F 76.8 °F 29.88 in SSE 3.0 mph 8.0 mph 82 % 0.00 in
11:31 83.2 °F 77.9 °F 29.88 in SW 2.4 mph 9.2 mph 84 % 0.00 in
11:36 83.9 °F 78.6 °F 29.88 in South 3.0 mph 12.0 mph 84 % 0.00 in
11:41 84.0 °F 76.8 °F 29.88 in SSE 5.0 mph 12.0 mph 79 % 0.00 in
11:46 83.8 °F 77.0 °F 29.88 in South 2.0 mph 12.0 mph 80 % 0.00 in
11:51 83.6 °F 76.0 °F 29.87 in South 1.0 mph 6.0 mph 78 % 0.00 in
11:56 83.6 °F 77.2 °F 29.87 in SSE 1.0 mph 7.0 mph 81 % 0.00 in
12:01 83.8 °F 77.0 °F 29.87 in South 2.0 mph 2.0 mph 80 % 0.00 in
12:06 83.7 °F 76.9 °F 29.87 in SSW 2.0 mph 8.0 mph 80 % 0.00 in
12:11 83.8 °F 77.3 °F 29.88 in SW 2.0 mph 5.0 mph 81 % 0.00 in
12:16 83.8 °F 77.0 °F 29.88 in SSW 6.0 mph 12.0 mph 80 % 0.00 in
12:21 83.6 °F 76.4 °F 29.87 in SW 5.0 mph 9.0 mph 79 % 0.00 in
12:26 83.3 °F 76.9 °F 29.87 in SSW 1.0 mph 5.0 mph 81 % 0.00 in
12:31 83.2 °F 76.4 °F 29.87 in South 1.0 mph 5.0 mph 80 % 0.00 in
12:36 83.7 °F 77.6 °F 29.87 in South 1.0 mph 5.0 mph 82 % 0.00 in
12:41 84.0 °F 76.8 °F 29.87 in SSE 2.0 mph 8.0 mph 79 % 0.00 in
12:46 83.9 °F 77.1 °F 29.86 in South 2.0 mph 8.0 mph 80 % 0.00 in
12:51 84.1 °F 77.3 °F 29.86 in SSW 1.0 mph 4.0 mph 80 % 0.00 in
12:56 84.5 °F 78.0 °F 29.85 in SSW 2.0 mph 12.0 mph 81 % 0.00 in
13:01 85.1 °F 77.8 °F 29.85 in WSW 2.0 mph 2.3 mph 79 % 0.00 in
13:06 85.6 °F 77.6 °F 29.86 in SSW 1.0 mph 10.0 mph 77 % 0.00 in
13:11 86.1 °F 78.0 °F 29.85 in SSW 1.0 mph 4.0 mph 77 % 0.00 in
13:16 86.6 °F 78.1 °F 29.85 in Calm   6.0 mph 76 % 0.00 in
13:21 86.8 °F 78.4 °F 29.85 in Calm   5.0 mph 76 % 0.00 in
13:26 87.1 °F 77.8 °F 29.84 in SSW 1.0 mph 5.0 mph 74 % 0.00 in
13:31 87.2 °F 78.3 °F 29.84 in South 1.0 mph 7.0 mph 75 % 0.00 in
13:36 87.4 °F 78.1 °F 29.84 in SSW 2.0 mph 3.5 mph 74 % 0.00 in
13:41 87.5 °F 78.2 °F 29.83 in SW 2.0 mph 5.0 mph 74 % 0.00 in
13:46 88.0 °F 79.1 °F 29.83 in South 2.0 mph 5.0 mph 75 % 0.00 in
13:51 88.2 °F 78.0 °F 29.83 in SSE 1.0 mph 8.0 mph 72 % 0.00 in
13:56 88.3 °F 79.0 °F 29.83 in SE 2.0 mph 7.0 mph 74 % 0.00 in
14:01 88.6 °F 79.2 °F 29.82 in SW 4.0 mph 6.0 mph 74 % 0.00 in
14:06 88.9 °F 78.7 °F 29.82 in SSW 2.0 mph 12.0 mph 72 % 0.00 in
14:11 89.2 °F 78.5 °F 29.81 in SSW 2.0 mph 9.0 mph 71 % 0.00 in
14:16 89.3 °F 79.0 °F 29.81 in SSW 2.0 mph 10.0 mph 72 % 0.00 in
14:21 89.4 °F 79.1 °F 29.81 in SSW 5.0 mph 9.0 mph 72 % 0.00 in
14:26 89.7 °F 78.6 °F 29.81 in SW 2.0 mph 9.0 mph 70 % 0.00 in
14:31 89.8 °F 78.2 °F 29.80 in SSW 5.0 mph 8.0 mph 69 % 0.00 in
14:36 89.2 °F 78.6 °F 29.80 in South 1.0 mph 7.0 mph 71 % 0.00 in
14:41 89.4 °F 79.6 °F 29.80 in South 3.0 mph 8.0 mph 73 % 0.00 in
14:46 89.5 °F 78.5 °F 29.80 in South 2.0 mph 13.0 mph 70 % 0.00 in
14:51 89.4 °F 78.3 °F 29.80 in SSE 2.0 mph 10.0 mph 70 % 0.00 in
14:56 89.6 °F 78.9 °F 29.80 in South 5.0 mph 9.0 mph 71 % 0.00 in
15:01 90.0 °F 79.3 °F 29.80 in SE 2.8 mph 6.9 mph 71 % 0.00 in
15:06 89.8 °F 78.3 °F 29.79 in South 2.0 mph 8.0 mph 69 % 0.00 in
15:11 89.9 °F 78.4 °F 29.79 in South 2.0 mph 7.0 mph 69 % 0.00 in
15:16 89.9 °F 78.8 °F 29.79 in South 2.0 mph 8.0 mph 70 % 0.00 in
15:21 90.2 °F 79.1 °F 29.78 in SSW 1.0 mph 8.0 mph 70 % 0.00 in
15:26 90.1 °F 77.6 °F 29.77 in South 2.0 mph 8.0 mph 67 % 0.00 in
15:31 89.8 °F 78.3 °F 29.77 in SSE 3.0 mph 6.0 mph 69 % 0.00 in
15:36 89.6 °F 78.1 °F 29.77 in South 5.0 mph 10.0 mph 69 % 0.00 in
15:41 89.0 °F 77.9 °F 29.77 in SSE 2.0 mph 10.0 mph 70 % 0.00 in
15:46 88.5 °F 77.9 °F 29.78 in SSE 3.0 mph 7.0 mph 71 % 0.00 in
15:51 88.4 °F 78.2 °F 29.77 in West 1.9 mph 8.0 mph 72 % 0.00 in
15:56 88.3 °F 78.1 °F 29.77 in SSE 2.0 mph 9.0 mph 72 % 0.00 in
16:01 88.3 °F 78.1 °F 29.78 in SE 3.4 mph 5.8 mph 72 % 0.00 in
16:06 87.8 °F 77.6 °F 29.77 in SE 0.6 mph 6.9 mph 72 % 0.00 in
16:11 88.0 °F 78.3 °F 29.78 in WSW 1.0 mph 3.5 mph 73 % 0.00 in
16:16 88.4 °F 78.2 °F 29.77 in South 1.7 mph 3.5 mph 72 % 0.00 in
16:21 88.5 °F 78.3 °F 29.77 in SSE 3.0 mph 4.6 mph 72 % 0.00 in
16:26 88.7 °F 78.1 °F 29.77 in SSW 2.8 mph 4.0 mph 71 % 0.00 in
16:31 88.4 °F 76.9 °F 29.76 in SSE 4.1 mph 8.1 mph 69 % 0.00 in
16:36 87.9 °F 77.3 °F 29.75 in South 3.5 mph 5.0 mph 71 % 0.00 in
16:41 87.4 °F 77.3 °F 29.76 in SSE 1.7 mph 7.0 mph 72 % 0.00 in
16:46 86.7 °F 77.0 °F 29.76 in South 4.8 mph 4.8 mph 73 % 0.00 in
16:52 86.3 °F 76.6 °F 29.76 in South 1.5 mph 4.6 mph 73 % 0.00 in
16:57 85.8 °F 76.5 °F 29.80 in WSW 7.1 mph 16.1 mph 74 % 0.00 in
17:02 84.0 °F 75.2 °F 29.79 in SW 8.8 mph 16.1 mph 75 % 0.11 in
17:07 82.0 °F 74.1 °F 29.77 in South 1.4 mph 3.5 mph 77 % 0.16 in
17:12 80.7 °F 74.0 °F 29.76 in SW 1.5 mph 4.0 mph 80 % 0.17 in
17:17 79.6 °F 74.0 °F 29.77 in SW 2.3 mph 4.6 mph 83 % 0.17 in
17:22 78.8 °F 73.6 °F 29.78 in SW 2.4 mph 5.8 mph 84 % 0.17 in
17:27 78.0 °F 73.5 °F 29.76 in SSW 3.3 mph 8.1 mph 86 % 0.17 in
17:32 77.5 °F 73.3 °F 29.78 in SSW 3.1 mph 4.0 mph 87 % 0.17 in
17:37 76.9 °F 73.1 °F 29.78 in SSW 2.0 mph 4.6 mph 88 % 0.17 in
17:43 76.6 °F 73.1 °F 29.77 in SSW 2.7 mph 3.5 mph 89 % 0.17 in
17:48 76.3 °F 73.5 °F 29.77 in Calm   2.3 mph 91 % 0.17 in
17:53 76.3 °F 73.5 °F 29.76 in SW 0.4 mph 3.5 mph 91 % 0.17 in
17:58 76.3 °F 73.8 °F 29.76 in SW 1.4 mph 3.5 mph 92 % 0.17 in
18:03 76.4 °F 74.2 °F 29.76 in Calm   1.2 mph 93 % 0.04 in
18:08 76.6 °F 74.7 °F 29.76 in SW 0.1 mph 1.2 mph 94 % 0.01 in
18:13 76.8 °F 74.9 °F 29.76 in SE 0.3 mph 1.2 mph 94 % 0.00 in
18:18 77.1 °F 75.2 °F 29.76 in SW 0.1 mph 2.3 mph 94 % 0.00 in
18:23 77.3 °F 75.4 °F 29.76 in SW 0.8 mph 2.3 mph 94 % 0.00 in
18:28 77.5 °F 75.6 °F 29.76 in SW 0.3 mph 1.2 mph 94 % 0.00 in
18:34 77.6 °F 75.7 °F 29.76 in SW 0.1 mph 1.2 mph 94 % 0.00 in
18:39 77.7 °F 75.8 °F 29.76 in Calm   2.3 mph 94 % 0.00 in
18:44 77.9 °F 76.0 °F 29.76 in SW 1.1 mph 3.5 mph 94 % 0.00 in
18:49 78.0 °F 76.1 °F 29.77 in SSW 1.1 mph 2.3 mph 94 % 0.00 in
18:54 78.0 °F 75.8 °F 29.77 in SSW 0.7 mph 1.2 mph 93 % 0.00 in
18:59 78.1 °F 75.9 °F 29.77 in WSW 0.1 mph 3.5 mph 93 % 0.00 in
19:04 78.2 °F 76.0 °F 29.77 in WSW 0.6 mph 1.2 mph 93 % 0.00 in
19:09 78.2 °F 76.0 °F 29.77 in Calm     93 % 0.00 in
19:14 78.3 °F 76.1 °F 29.77 in Calm     93 % 0.00 in
19:19 78.4 °F 76.2 °F 29.77 in Calm     93 % 0.00 in
19:25 78.5 °F 76.3 °F 29.78 in Calm   1.2 mph 93 % 0.00 in
19:30 78.5 °F 76.3 °F 29.78 in Calm     93 % 0.00 in
19:35 78.6 °F 76.4 °F 29.77 in Calm     93 % 0.00 in
19:45 78.7 °F 76.5 °F 29.78 in SSW 0.1 mph 1.2 mph 93 % 0.00 in
19:50 78.7 °F 76.5 °F 29.78 in SSW 1.2 mph 2.3 mph 93 % 0.00 in
19:55 78.7 °F 76.5 °F 29.77 in SSW 0.8 mph 2.3 mph 93 % 0.00 in
20:00 78.6 °F 76.4 °F 29.77 in SSW 1.4 mph 3.5 mph 93 % 0.00 in
20:05 78.5 °F 76.0 °F 29.77 in SSW 0.4 mph 2.3 mph 92 % 0.00 in
20:11 78.4 °F 75.9 °F 29.77 in SSW 0.7 mph 1.2 mph 92 % 0.00 in
20:16 78.3 °F 75.8 °F 29.77 in Calm   2.0 mph 92 % 0.00 in
20:21 78.2 °F 75.7 °F 29.77 in Calm   2.0 mph 92 % 0.00 in
20:26 78.1 °F 75.6 °F 29.77 in Calm   2.0 mph 92 % 0.00 in
20:31 78.0 °F 75.5 °F 29.77 in Calm   1.0 mph 92 % 0.00 in
20:36 78.0 °F 75.5 °F 29.77 in Calm   2.0 mph 92 % 0.00 in
20:41 77.9 °F 75.7 °F 29.77 in SSW 0.4 mph 1.2 mph 93 % 0.00 in
20:46 77.8 °F 75.6 °F 29.77 in Calm   3.0 mph 93 % 0.00 in
20:56 77.6 °F 75.4 °F 29.77 in Calm   1.0 mph 93 % 0.00 in
21:01 77.5 °F 75.3 °F 29.77 in Calm   1.2 mph 93 % 0.00 in
21:06 77.4 °F 75.2 °F 29.77 in Calm     93 % 0.00 in
21:11 77.4 °F 75.2 °F 29.78 in Calm     93 % 0.00 in
21:16 77.3 °F 75.1 °F 29.79 in Calm     93 % 0.00 in
21:21 77.2 °F 75.0 °F 29.78 in SW 0.1 mph 1.2 mph 93 % 0.00 in
21:26 77.1 °F 74.9 °F 29.79 in Calm     93 % 0.00 in
21:31 77.0 °F 74.8 °F 29.79 in Calm   1.2 mph 93 % 0.00 in
21:36 77.0 °F 75.1 °F 29.79 in Calm     94 % 0.00 in
21:47 76.8 °F 74.9 °F 29.79 in SW 0.2 mph   94 % 0.00 in
21:52 76.7 °F 74.8 °F 29.79 in SW 0.2 mph 1.2 mph 94 % 0.00 in
21:57 76.7 °F 74.8 °F 29.79 in SW 0.3 mph 3.5 mph 94 % 0.00 in
22:02 76.6 °F 74.7 °F 29.79 in Calm   2.3 mph 94 % 0.00 in
22:07 76.6 °F 74.7 °F 29.79 in SW 0.3 mph 1.2 mph 94 % 0.00 in
22:12 76.6 °F 74.7 °F 29.79 in SW 0.5 mph 1.2 mph 94 % 0.00 in
22:22 76.5 °F 74.6 °F 29.79 in Calm   1.2 mph 94 % 0.00 in
22:27 76.4 °F 74.5 °F 29.79 in Calm     94 % 0.00 in
22:32 76.3 °F 74.4 °F 29.79 in Calm     94 % 0.00 in
22:38 76.3 °F 74.4 °F 29.80 in SW 0.2 mph 1.2 mph 94 % 0.00 in
22:43 76.2 °F 74.3 °F 29.79 in Calm   1.2 mph 94 % 0.00 in
22:48 76.2 °F 74.3 °F 29.79 in Calm   1.2 mph 94 % 0.00 in
22:53 76.2 °F 74.3 °F 29.79 in Calm     94 % 0.00 in
23:03 76.0 °F 74.1 °F 29.79 in SW 0.2 mph 2.3 mph 94 % 0.00 in
23:08 76.0 °F 74.1 °F 29.79 in Calm   2.3 mph 94 % 0.00 in
23:13 76.0 °F 74.5 °F 29.79 in SW 0.1 mph 1.0 mph 95 % 0.00 in
23:18 75.9 °F 74.4 °F 29.79 in SW 0.1 mph 2.3 mph 95 % 0.00 in
23:23 75.9 °F 74.4 °F 29.79 in SW 0.1 mph 1.2 mph 95 % 0.00 in
23:29 75.8 °F 74.3 °F 29.79 in SW 0.1 mph   95 % 0.00 in
23:34 75.8 °F 74.3 °F 29.79 in SW 0.2 mph 1.2 mph 95 % 0.00 in
23:39 75.8 °F 74.3 °F 29.79 in Calm   1.2 mph 95 % 0.00 in
23:49 75.7 °F 74.2 °F 29.79 in SW 0.2 mph 1.2 mph 95 % 0.00 in
23:54 75.7 °F 74.2 °F 29.78 in SW 0.7 mph 2.3 mph 95 % 0.00 in
23:59 75.7 °F 74.2 °F 29.79 in SW 1.0 mph 2.3 mph 95 % 0.00 in
Crab Meadow Weather
Compliments of Weather Underground - 3 mb

Script developed by  Jim McMurry - jmcmurry@mwt.net Adapted for the template by  Wim van der Kuil - Leuven-Template.eu

Astronomy: The light of the Sun takes 8 minutes to reach Earth.